createdAt,value
2023-01-05T00:01:40.002Z,0.50
2023-01-05T00:04:08.720Z,0.52
2023-01-05T00:06:37.599Z,0.30
2023-01-05T00:09:06.666Z,0.80
2023-01-05T00:11:52.568Z,0.20
2023-01-05T00:14:42.730Z,0.25
2023-01-05T00:17:31.433Z,0.45
2023-01-05T00:20:18.343Z,0.70
2023-01-05T00:22:49.811Z,1.50
2023-01-05T00:25:20.570Z,2.38
2023-01-05T00:27:51.377Z,1.67
2023-01-05T00:30:26.680Z,0.30
2023-01-05T00:32:55.438Z,1.23
2023-01-05T00:35:24.335Z,1.55
2023-01-05T00:37:53.057Z,0.73
2023-01-05T00:40:23.589Z,0.93
2023-01-05T00:42:51.718Z,0.80
2023-01-05T00:45:21.907Z,0.40
2023-01-05T00:47:51.694Z,1.40
2023-01-05T00:50:21.146Z,0.65
2023-01-05T00:52:50.132Z,0.73
2023-01-05T00:55:18.495Z,0.68
2023-01-05T00:57:46.675Z,1.40
2023-01-05T01:00:19.405Z,2.40
2023-01-05T01:02:52.628Z,0.82
2023-01-05T01:05:20.922Z,1.20
2023-01-05T01:07:49.737Z,0.80
2023-01-05T01:10:18.146Z,1.17
2023-01-05T01:12:46.374Z,0.70
2023-01-05T01:15:14.531Z,0.38
2023-01-05T01:17:43.641Z,0.40
2023-01-05T01:20:13.611Z,1.92
2023-01-05T01:22:42.116Z,0.50
2023-01-05T01:25:10.923Z,0.77
2023-01-05T01:27:39.219Z,1.88
2023-01-05T01:30:09.933Z,0.45
2023-01-05T01:32:38.144Z,0.90
2023-01-05T01:35:08.428Z,0.52
2023-01-05T01:37:38.327Z,0.60
2023-01-05T01:40:09.310Z,0.47
2023-01-05T01:42:37.631Z,1.55
2023-01-05T01:45:20.683Z,0.40
2023-01-05T01:47:55.177Z,0.55
2023-01-05T01:50:29.343Z,0.40
2023-01-05T01:53:04.518Z,0.35
2023-01-05T01:55:34.188Z,0.95
2023-01-05T01:58:07.229Z,0.20
2023-01-05T02:00:35.553Z,0.43
2023-01-05T02:03:05.287Z,1.08
2023-01-05T02:05:37.196Z,1.65
2023-01-05T02:08:13.738Z,0.30
2023-01-05T02:10:58.654Z,0.55
2023-01-05T02:13:48.952Z,0.90
2023-01-05T02:16:30.217Z,0.30
2023-01-05T02:19:35.578Z,0.30
2023-01-05T02:22:28.043Z,0.20
2023-01-05T02:25:30.882Z,0.30
2023-01-05T02:28:15.602Z,0.75
2023-01-05T02:31:18.285Z,0.85
2023-01-05T02:34:08.912Z,1.17
2023-01-05T02:36:49.415Z,0.25
2023-01-05T02:39:23.290Z,0.20
2023-01-05T02:41:59.296Z,0.20
2023-01-05T02:44:31.528Z,0.22
2023-01-05T02:47:04.471Z,0.20
2023-01-05T02:49:39.508Z,0.35
2023-01-05T02:52:10.760Z,0.20
2023-01-05T02:54:48.048Z,0.98
2023-01-05T02:57:21.048Z,1.08
2023-01-05T02:59:55.247Z,0.55
2023-01-05T03:02:32.540Z,1.23
2023-01-05T03:05:07.332Z,1.67
2023-01-05T03:07:40.425Z,0.13
2023-01-05T03:10:32.475Z,0.20
2023-01-05T03:13:32.023Z,0.55
2023-01-05T03:16:02.378Z,0.30
2023-01-05T03:18:54.858Z,0.88
2023-01-05T03:21:23.835Z,0.77
2023-01-05T03:24:10.366Z,0.38
2023-01-05T03:26:59.165Z,0.63
2023-01-05T03:29:46.774Z,0.22
2023-01-05T03:32:40.464Z,0.47
2023-01-05T03:35:32.957Z,0.85
2023-01-05T03:38:19.147Z,0.20
2023-01-05T03:40:55.334Z,0.50
2023-01-05T03:43:24.399Z,0.17
2023-01-05T03:45:55.712Z,0.25
2023-01-05T03:48:29.912Z,0.98
2023-01-05T03:50:59.440Z,0.20
2023-01-05T03:53:28.381Z,0.10
2023-01-05T03:55:56.611Z,0.45
2023-01-05T03:58:26.507Z,0.30
2023-01-05T04:00:54.973Z,0.20
2023-01-05T04:03:31.033Z,0.65
2023-01-05T04:06:02.856Z,0.10
2023-01-05T04:08:33.159Z,0.35
2023-01-05T04:11:14.404Z,1.13
2023-01-05T04:13:44.572Z,0.15
2023-01-05T04:16:13.117Z,0.22
2023-01-05T04:18:42.596Z,0.22
2023-01-05T04:21:12.850Z,0.50
2023-01-05T04:23:41.186Z,0.30
2023-01-05T04:26:10.054Z,0.00
2023-01-05T04:28:39.193Z,0.65
2023-01-05T04:31:07.474Z,0.20
2023-01-05T04:33:36.369Z,0.30
2023-01-05T04:36:05.376Z,0.40
2023-01-05T04:38:35.034Z,0.22
2023-01-05T04:41:03.555Z,0.75
2023-01-05T04:43:31.682Z,0.10
2023-01-05T04:46:02.319Z,0.10
2023-01-05T04:48:31.865Z,0.20
2023-01-05T04:51:00.783Z,0.75
2023-01-05T04:53:34.479Z,0.15
2023-01-05T04:56:03.768Z,0.20
2023-01-05T04:58:36.763Z,0.55
2023-01-05T05:01:05.329Z,0.05
2023-01-05T05:03:36.151Z,0.65
2023-01-05T05:06:07.670Z,0.20
2023-01-05T05:08:37.215Z,2.38
2023-01-05T05:11:10.366Z,0.13
2023-01-05T05:13:40.992Z,0.63
2023-01-05T05:16:10.112Z,0.10
2023-01-05T05:18:40.577Z,0.73
2023-01-05T05:21:11.979Z,0.10
2023-01-05T05:23:42.643Z,0.30
2023-01-05T05:26:11.029Z,0.20
2023-01-05T05:28:39.927Z,0.35
2023-01-05T05:31:08.488Z,0.08
2023-01-05T05:33:37.973Z,0.10
2023-01-05T05:36:07.427Z,0.30
2023-01-05T05:38:35.611Z,0.85
2023-01-05T05:41:05.405Z,1.02
2023-01-05T05:43:36.434Z,0.35
2023-01-05T05:46:05.044Z,0.80
2023-01-05T05:48:33.261Z,0.57
2023-01-05T05:51:01.388Z,0.55
2023-01-05T05:53:29.548Z,0.30
2023-01-05T05:55:57.678Z,1.60
2023-01-05T05:58:27.277Z,2.72
2023-01-05T06:01:00.113Z,3.75
2023-01-05T06:03:28.269Z,0.17
2023-01-05T06:05:56.449Z,1.45
2023-01-05T06:08:25.151Z,0.75
2023-01-05T06:10:53.534Z,0.85
2023-01-05T06:13:21.841Z,1.45
2023-01-05T06:15:51.932Z,3.83
2023-01-05T06:18:20.341Z,1.95
2023-01-05T06:20:48.515Z,0.60
2023-01-05T06:23:16.660Z,0.90
2023-01-05T06:25:45.744Z,1.98
2023-01-05T06:28:19.910Z,3.53
2023-01-05T06:30:48.505Z,2.13
2023-01-05T06:33:17.976Z,1.30
2023-01-05T06:35:46.149Z,5.57
2023-01-05T06:38:16.018Z,19.77
2023-01-05T06:40:44.551Z,6.03
2023-01-05T06:43:13.112Z,12.02
2023-01-05T06:45:41.299Z,8.85
2023-01-05T06:48:09.463Z,8.65
2023-01-05T06:50:39.012Z,2.80
2023-01-05T06:53:07.183Z,5.35
2023-01-05T06:55:35.297Z,6.20
2023-01-05T06:58:03.395Z,14.07
2023-01-05T07:00:34.620Z,9.00
2023-01-05T08:27:35.834Z,9.85
2023-01-05T08:30:04.563Z,3.85
2023-01-05T08:32:33.318Z,7.93
2023-01-05T08:35:01.459Z,5.85
2023-01-05T08:37:29.632Z,7.53
2023-01-05T08:40:00.143Z,6.00
2023-01-05T08:42:28.356Z,8.05
2023-01-05T08:44:57.952Z,3.70
2023-01-05T08:47:28.447Z,4.15
2023-01-05T08:49:56.864Z,7.25
2023-01-05T08:52:25.115Z,3.60
2023-01-05T08:54:53.239Z,4.35
2023-01-05T08:57:21.440Z,3.42
2023-01-05T08:59:49.620Z,7.07
2023-01-05T09:02:25.373Z,6.72
2023-01-05T09:04:55.268Z,9.23
2023-01-05T09:07:23.651Z,4.50
2023-01-05T09:09:51.913Z,5.38
2023-01-05T09:12:20.029Z,8.15
2023-01-05T09:14:48.182Z,12.20
2023-01-05T09:17:16.360Z,5.82
2023-01-05T09:19:45.936Z,4.03
2023-01-05T09:22:14.247Z,4.20
2023-01-05T09:24:42.384Z,4.88
2023-01-05T09:27:10.899Z,9.70
2023-01-05T09:29:39.143Z,9.48
2023-01-05T09:32:08.271Z,4.65
2023-01-05T09:34:36.429Z,7.10
2023-01-05T09:37:06.026Z,6.55
2023-01-05T09:39:34.228Z,3.10
2023-01-05T09:42:07.357Z,4.03
2023-01-05T09:44:38.185Z,9.52
2023-01-05T09:47:16.603Z,6.43
2023-01-05T09:49:45.647Z,7.82
2023-01-05T09:52:15.752Z,5.38
2023-01-05T09:54:43.912Z,4.43
2023-01-05T09:57:20.182Z,8.45
2023-01-05T09:59:52.460Z,3.05
2023-01-05T10:02:30.376Z,8.05
2023-01-05T10:05:01.379Z,5.10
2023-01-05T10:07:43.029Z,8.20
2023-01-05T10:10:30.767Z,7.63
2023-01-05T10:13:05.385Z,7.47
2023-01-05T10:15:43.318Z,10.93
2023-01-05T10:18:16.186Z,5.80
2023-01-05T10:20:59.026Z,7.97
2023-01-05T10:23:58.268Z,9.35
2023-01-05T10:26:58.214Z,4.85
2023-01-05T10:29:30.758Z,5.50
2023-01-05T10:32:13.682Z,18.65
2023-01-05T10:34:57.210Z,7.88
2023-01-05T10:38:01.501Z,4.32
2023-01-05T10:40:49.783Z,6.70
2023-01-05T10:43:42.165Z,3.65
2023-01-05T10:46:32.553Z,6.82
2023-01-05T10:49:02.761Z,4.07
2023-01-05T10:51:34.837Z,6.18
2023-01-05T10:54:04.033Z,8.45
2023-01-05T10:56:33.692Z,6.50
2023-01-05T10:59:10.611Z,8.68
2023-01-05T11:01:46.017Z,8.18
2023-01-05T11:04:33.913Z,11.07
2023-01-05T11:07:08.209Z,27.05
2023-01-05T11:13:51.185Z,10.65
2023-01-05T11:16:24.053Z,12.18
2023-01-05T11:18:56.015Z,27.35
2023-01-05T11:21:26.867Z,6.75
2023-01-05T11:23:58.612Z,9.82
2023-01-05T11:26:34.164Z,18.00
2023-01-05T11:29:15.613Z,9.55
2023-01-05T11:31:53.095Z,9.70
2023-01-05T11:34:35.453Z,9.05
2023-01-05T11:37:08.377Z,7.43
2023-01-05T11:39:42.101Z,10.98
2023-01-05T11:42:24.996Z,8.32
2023-01-05T11:44:58.116Z,9.75
2023-01-05T11:47:36.528Z,8.82
2023-01-05T11:50:22.321Z,8.90
2023-01-05T11:52:53.869Z,8.85
2023-01-05T11:55:39.659Z,10.68
2023-01-05T11:58:27.255Z,8.65
2023-01-05T12:01:37.443Z,8.88
2023-01-05T12:04:32.767Z,11.50
2023-01-05T12:07:31.252Z,9.50
2023-01-05T12:10:14.288Z,10.90
2023-01-05T12:12:56.918Z,10.80
2023-01-05T12:16:04.288Z,11.13
2023-01-05T12:19:08.884Z,11.13
2023-01-05T12:21:40.869Z,12.00
2023-01-05T12:24:40.775Z,12.15
2023-01-05T12:27:25.285Z,13.07
2023-01-05T12:34:01.828Z,11.70
2023-01-05T12:36:48.280Z,8.23
2023-01-05T12:39:52.085Z,13.52
2023-01-05T12:42:51.892Z,7.60
2023-01-05T12:45:52.053Z,6.18
2023-01-05T12:48:28.715Z,6.43
2023-01-05T12:51:10.540Z,8.30
2023-01-05T12:53:51.487Z,5.43
2023-01-05T12:56:28.287Z,5.10
2023-01-05T12:59:14.376Z,7.72
2023-01-05T13:01:50.767Z,6.30
2023-01-05T13:04:46.208Z,8.43
2023-01-05T13:07:24.202Z,5.43
2023-01-05T13:10:03.733Z,7.82
2023-01-05T13:12:34.071Z,6.82
2023-01-05T13:15:22.227Z,5.35
2023-01-05T13:17:54.371Z,8.25
2023-01-05T13:20:31.183Z,7.30
2023-01-05T13:23:06.268Z,8.35
2023-01-05T13:25:49.362Z,11.38
2023-01-05T13:28:22.032Z,8.98
2023-01-05T13:31:31.761Z,10.10
2023-01-05T13:34:29.510Z,8.13
2023-01-05T13:37:25.026Z,9.68
2023-01-05T13:40:20.295Z,9.05
2023-01-05T13:43:18.198Z,9.30
2023-01-05T13:46:45.481Z,9.63
2023-01-05T13:49:48.590Z,10.70
2023-01-05T13:52:32.222Z,7.80
2023-01-05T13:55:04.000Z,11.18
2023-01-05T13:57:39.379Z,12.13
2023-01-05T14:00:27.024Z,6.47
2023-01-05T14:03:07.859Z,11.30
2023-01-05T14:05:49.585Z,8.27
2023-01-05T14:08:25.760Z,5.07
2023-01-05T14:11:16.997Z,9.45
2023-01-05T14:13:57.382Z,6.22
2023-01-05T14:17:03.178Z,4.63
2023-01-05T14:19:53.051Z,7.97
2023-01-05T14:22:39.975Z,10.73
2023-01-05T14:25:49.373Z,8.73
2023-01-05T14:28:35.329Z,9.45
2023-01-05T14:31:48.564Z,11.52
2023-01-05T14:34:25.407Z,8.95
2023-01-05T14:37:07.179Z,13.05
2023-01-05T14:39:45.389Z,7.10
2023-01-05T14:42:33.087Z,11.07
2023-01-05T14:45:08.668Z,12.40
2023-01-05T14:47:43.605Z,9.23
2023-01-05T14:53:15.348Z,9.13
2023-01-05T14:56:19.822Z,5.88
2023-01-05T14:59:07.110Z,8.65
2023-01-05T15:04:20.197Z,9.52
2023-01-05T15:07:26.207Z,9.70
2023-01-05T15:10:19.754Z,6.20
2023-01-05T15:13:20.368Z,13.02
2023-01-05T15:15:57.931Z,10.13
2023-01-05T15:18:56.870Z,15.30
2023-01-05T15:22:08.051Z,7.72
2023-01-05T15:25:46.235Z,6.20
2023-01-05T15:29:27.398Z,12.30
2023-01-05T15:32:00.034Z,9.07
2023-01-05T15:34:38.232Z,9.23
2023-01-05T15:37:16.888Z,9.68
2023-01-05T15:39:50.574Z,9.10
2023-01-05T15:42:25.307Z,12.38
2023-01-05T15:44:58.016Z,14.70
2023-01-05T15:47:31.832Z,7.47
2023-01-05T15:50:02.612Z,8.73
2023-01-05T15:52:39.006Z,9.27
2023-01-05T15:55:16.415Z,16.10
2023-01-05T15:57:54.952Z,20.23
2023-01-05T16:00:29.195Z,12.00
2023-01-05T16:02:57.515Z,10.65
2023-01-05T16:05:28.295Z,9.35
2023-01-05T16:07:59.774Z,12.13
2023-01-05T16:10:37.045Z,12.07
2023-01-05T16:13:13.399Z,11.25
2023-01-05T16:15:47.483Z,9.13
2023-01-05T16:18:23.645Z,9.85
2023-01-05T16:20:55.885Z,16.25
2023-01-05T16:23:38.347Z,11.23
2023-01-05T16:26:07.637Z,10.27
2023-01-05T16:28:37.791Z,15.82
2023-01-05T16:31:15.530Z,20.83
2023-01-05T16:33:44.946Z,9.85
2023-01-05T16:36:20.741Z,70.90
2023-01-05T16:38:49.991Z,9.52
2023-01-05T16:41:25.490Z,13.13
2023-01-05T16:43:57.610Z,14.90
2023-01-05T16:46:52.732Z,11.45
2023-01-05T16:49:33.936Z,12.10
2023-01-05T16:52:05.477Z,11.50
2023-01-05T16:54:39.516Z,18.70
2023-01-05T16:57:34.741Z,8.48
2023-01-05T17:00:04.103Z,15.77
2023-01-05T17:02:46.919Z,12.75
2023-01-05T17:05:20.284Z,7.70
2023-01-05T17:07:51.528Z,10.90
2023-01-05T17:10:24.181Z,10.63
2023-01-05T17:13:00.652Z,12.35
2023-01-05T17:15:32.898Z,9.63
2023-01-05T17:18:11.323Z,10.60
2023-01-05T17:20:43.048Z,10.90
2023-01-05T17:23:18.194Z,13.68
2023-01-05T17:25:46.523Z,11.38
2023-01-05T17:28:14.666Z,18.70
2023-01-05T17:30:43.208Z,11.27
2023-01-05T17:33:12.748Z,15.95
2023-01-05T17:35:41.428Z,9.80
2023-01-05T17:38:11.216Z,15.13
2023-01-05T17:40:40.575Z,18.45
2023-01-05T17:43:09.154Z,14.35
2023-01-05T17:45:42.567Z,10.43
2023-01-05T17:50:49.304Z,11.52
2023-01-05T17:53:19.131Z,9.70
2023-01-05T17:55:47.274Z,13.88
2023-01-05T17:58:16.681Z,9.30
2023-01-05T18:03:22.248Z,44.08
2023-01-05T18:05:53.427Z,12.75
2023-01-05T18:08:22.821Z,17.35
2023-01-05T18:10:51.077Z,13.20
2023-01-05T18:13:22.505Z,16.38
2023-01-05T18:15:53.047Z,21.98
2023-01-05T18:18:24.193Z,14.88
2023-01-05T18:20:53.030Z,16.98
2023-01-05T18:23:24.267Z,9.18
2023-01-05T18:25:52.648Z,14.43
2023-01-05T18:28:20.795Z,16.65
2023-01-05T18:30:48.990Z,14.35
2023-01-05T18:33:17.369Z,8.35
2023-01-05T18:35:48.368Z,7.28
2023-01-05T18:38:16.603Z,12.57
2023-01-05T18:40:50.115Z,13.02
2023-01-05T18:43:18.598Z,15.13
2023-01-05T18:45:46.833Z,10.38
2023-01-05T18:48:15.092Z,17.00
2023-01-05T18:50:50.944Z,18.40
2023-01-05T18:53:19.953Z,13.88
2023-01-05T18:55:48.335Z,10.50
2023-01-05T18:58:17.046Z,11.80
2023-01-05T19:00:47.447Z,12.10
2023-01-05T19:03:15.656Z,15.00
2023-01-05T19:05:46.276Z,12.32
2023-01-05T19:08:15.077Z,19.63
2023-01-05T19:10:43.584Z,16.20
2023-01-05T19:13:11.787Z,17.77
2023-01-05T19:15:41.606Z,17.70
2023-01-05T19:18:10.013Z,18.65
2023-01-05T19:20:38.689Z,14.57
2023-01-05T19:23:08.974Z,23.23
2023-01-05T19:25:37.279Z,18.08
2023-01-05T19:28:05.448Z,26.67
2023-01-05T19:30:33.583Z,22.70
2023-01-05T19:33:02.223Z,18.63
2023-01-05T19:35:31.125Z,15.43
2023-01-05T19:38:00.423Z,19.65
2023-01-05T19:40:32.556Z,15.90
2023-01-05T19:43:00.694Z,41.53
2023-01-05T19:45:28.849Z,35.88
2023-01-05T19:47:58.368Z,35.35
2023-01-05T19:50:26.609Z,40.78
2023-01-05T19:52:54.795Z,27.58
2023-01-05T19:55:22.972Z,16.70
2023-01-05T19:57:52.733Z,16.30
2023-01-05T20:00:21.068Z,19.20
2023-01-05T20:02:49.323Z,15.48
2023-01-05T20:05:18.209Z,14.55
2023-01-05T20:07:46.420Z,17.55
2023-01-05T20:10:14.607Z,18.85
2023-01-05T20:12:42.773Z,16.77
2023-01-05T20:15:13.318Z,13.07
2023-01-05T20:17:42.167Z,12.48
2023-01-05T20:20:12.059Z,15.40
2023-01-05T20:22:40.728Z,15.23
2023-01-05T20:25:10.205Z,17.48
2023-01-05T20:27:39.597Z,13.65
2023-01-05T20:30:09.831Z,15.50
2023-01-05T20:32:39.644Z,17.52
2023-01-05T20:35:08.757Z,18.58
2023-01-05T20:37:37.020Z,12.82
2023-01-05T20:40:06.215Z,11.68
2023-01-05T20:42:34.519Z,16.23
2023-01-05T20:45:03.760Z,11.55
2023-01-05T20:47:43.027Z,19.17
2023-01-05T20:50:16.516Z,11.02
2023-01-05T20:52:44.723Z,11.90
2023-01-05T20:55:13.214Z,10.32
2023-01-05T20:57:41.341Z,11.93
2023-01-05T21:00:13.902Z,16.85
2023-01-05T21:02:42.198Z,17.80
2023-01-05T21:05:11.988Z,19.17
2023-01-05T21:07:41.467Z,13.90
2023-01-05T21:10:10.120Z,19.10
2023-01-05T21:12:38.359Z,13.70
2023-01-05T21:15:08.329Z,17.73
2023-01-05T21:17:36.619Z,18.00
2023-01-05T21:20:06.365Z,17.77
2023-01-05T21:22:35.017Z,14.30
2023-01-05T21:25:05.205Z,14.73
2023-01-05T21:27:35.552Z,16.25
2023-01-05T21:30:04.450Z,14.45
2023-01-05T21:32:33.064Z,12.15
2023-01-05T21:35:01.918Z,19.92
2023-01-05T21:37:31.496Z,17.27
2023-01-05T21:40:02.178Z,18.75
2023-01-05T21:42:42.487Z,14.13
2023-01-05T21:45:13.523Z,18.63
2023-01-05T21:47:41.998Z,17.30
2023-01-05T21:50:32.128Z,23.75
2023-01-05T21:53:21.075Z,17.38
2023-01-05T21:56:07.428Z,15.77
2023-01-05T21:58:37.371Z,16.40
2023-01-05T22:01:05.949Z,12.88
2023-01-05T22:03:34.611Z,12.63
2023-01-05T22:06:03.068Z,17.48
2023-01-05T22:08:31.309Z,13.23
2023-01-05T22:11:02.793Z,9.68
2023-01-05T22:13:32.043Z,10.30
2023-01-05T22:16:01.708Z,10.70
2023-01-05T22:18:29.886Z,13.23
2023-01-05T22:21:01.123Z,10.98
2023-01-05T22:23:31.332Z,14.38
2023-01-05T22:26:02.520Z,12.85
2023-01-05T22:28:31.552Z,13.38
2023-01-05T22:31:12.735Z,15.73
2023-01-05T22:33:45.323Z,14.93
2023-01-05T22:36:16.319Z,11.65
2023-01-05T22:38:47.747Z,11.48
2023-01-05T22:41:21.129Z,12.50
2023-01-05T22:43:50.797Z,12.25
2023-01-05T22:46:22.862Z,17.55
2023-01-05T22:48:53.658Z,12.73
2023-01-05T22:51:25.350Z,9.32
2023-01-05T22:53:53.676Z,10.18
2023-01-05T22:56:24.673Z,17.98
2023-01-05T22:58:53.159Z,12.07
2023-01-05T23:01:27.124Z,10.85
2023-01-05T23:03:57.897Z,14.43
2023-01-05T23:06:27.076Z,8.30
2023-01-05T23:08:56.271Z,20.27
2023-01-05T23:11:27.321Z,15.15
2023-01-05T23:13:56.843Z,13.60
2023-01-05T23:16:27.826Z,13.15
2023-01-05T23:18:56.673Z,12.57
2023-01-05T23:21:27.491Z,10.52
2023-01-05T23:23:58.481Z,9.07
2023-01-05T23:26:28.623Z,13.38
2023-01-05T23:28:58.030Z,12.70
2023-01-05T23:31:28.965Z,16.02
2023-01-05T23:33:58.299Z,13.45
2023-01-05T23:36:26.991Z,16.73
2023-01-05T23:38:55.150Z,12.38
2023-01-05T23:41:23.343Z,15.73
2023-01-05T23:43:51.582Z,12.50
2023-01-05T23:46:22.933Z,13.02
2023-01-05T23:48:53.571Z,9.48
2023-01-05T23:51:22.076Z,12.10
2023-01-05T23:53:53.255Z,17.00
2023-01-05T23:56:23.878Z,14.05
2023-01-05T23:58:58.582Z,7.55
